Time;durP1;ratioP1;P1;durP2;ratioP2;P2;SDS_P1;SDS_P2;PMS_P1;PMS_P2;Temp;Humidity;BMP_temperature;BMP_pressure;BME280_temperature;BME280_humidity;BME280_pressure;Samples;Min_cycle;Max_cycle;Signal;HPM_P1;HPM_P2
2023/05/29 00:00:16;;;;;;;5.50;4.07;;;14.80;99.90;;;;;;5050817;28;20252;-56
2023/05/29 00:02:44;;;;;;;7.07;4.47;;;14.80;99.90;;;;;;5051127;28;20297;-56
2023/05/29 00:05:11;;;;;;;5.10;3.87;;;14.70;99.90;;;;;;5051179;28;20296;-56
2023/05/29 00:07:40;;;;;;;6.43;4.20;;;14.70;99.90;;;;;;5051267;28;20197;-56
2023/05/29 00:10:08;;;;;;;6.15;3.72;;;14.70;99.90;;;;;;5050918;28;20295;-56
2023/05/29 00:12:35;;;;;;;8.43;4.20;;;14.70;99.90;;;;;;5050711;28;20201;-56
2023/05/29 00:15:03;;;;;;;6.93;3.87;;;14.60;99.90;;;;;;5053549;28;20310;-56
2023/05/29 00:17:31;;;;;;;6.00;3.75;;;14.60;99.90;;;;;;5054508;28;20233;-57
2023/05/29 00:19:58;;;;;;;5.10;3.97;;;14.60;99.90;;;;;;5054621;28;20279;-57
2023/05/29 00:22:26;;;;;;;5.37;3.60;;;14.60;99.90;;;;;;5054846;28;20217;-55
2023/05/29 00:24:54;;;;;;;4.83;3.77;;;14.60;99.90;;;;;;5054638;28;20259;-56
2023/05/29 00:27:21;;;;;;;5.97;3.63;;;14.60;99.90;;;;;;5054360;28;20210;-55
2023/05/29 00:29:47;;;;;;;5.72;4.20;;;14.60;99.90;;;;;;5054476;28;20275;-59
2023/05/29 00:32:14;;;;;;;5.97;3.63;;;14.60;99.90;;;;;;5054281;28;20217;-56
2023/05/29 00:34:41;;;;;;;5.97;3.80;;;14.70;99.90;;;;;;5054270;28;20233;-57
2023/05/29 00:37:08;;;;;;;5.57;3.93;;;14.70;99.90;;;;;;5053774;28;20609;-60
2023/05/29 00:39:34;;;;;;;6.27;3.37;;;14.70;99.90;;;;;;5054126;28;20707;-55
2023/05/29 00:42:02;;;;;;;6.57;3.40;;;14.70;99.90;;;;;;5053903;28;20217;-56
2023/05/29 00:44:30;;;;;;;7.37;3.80;;;14.70;99.90;;;;;;5054093;28;20212;-57
2023/05/29 00:46:58;;;;;;;5.60;3.47;;;14.80;99.90;;;;;;5053694;28;20388;-57
2023/05/29 00:49:26;;;;;;;6.07;3.47;;;14.80;99.90;;;;;;5053862;28;20222;-57
2023/05/29 00:51:55;;;;;;;5.73;3.53;;;14.70;99.90;;;;;;5053926;28;20209;-57
2023/05/29 00:54:24;;;;;;;4.93;3.50;;;14.70;99.90;;;;;;5053984;28;20275;-56
2023/05/29 00:56:51;;;;;;;5.23;2.83;;;14.70;99.90;;;;;;5053702;28;20209;-57
2023/05/29 00:59:21;;;;;;;6.47;3.53;;;14.60;99.90;;;;;;5053455;28;20580;-56
2023/05/29 01:01:50;;;;;;;4.75;3.03;;;14.50;99.90;;;;;;5053745;28;20216;-57
2023/05/29 01:04:17;;;;;;;5.93;3.37;;;14.50;99.90;;;;;;5053460;28;20683;-58
2023/05/29 01:06:45;;;;;;;5.87;3.30;;;14.40;99.90;;;;;;5053347;28;20202;-57
2023/05/29 01:09:13;;;;;;;7.47;3.37;;;14.40;99.90;;;;;;5053460;28;20290;-56
2023/05/29 01:11:50;;;;;;;5.47;2.97;;;14.30;99.90;;;;;;5054000;28;20576;-61
2023/05/29 01:14:27;;;;;;;4.47;3.30;;;14.20;99.90;;;;;;5053362;28;20226;-61
2023/05/29 01:17:03;;;;;;;5.30;3.17;;;14.10;99.90;;;;;;5053133;28;20300;-61
2023/05/29 01:19:47;;;;;;;5.70;3.30;;;14.10;99.90;;;;;;5053069;28;20658;-61
2023/05/29 01:22:22;;;;;;;5.53;3.33;;;14.00;99.90;;;;;;5053285;28;20613;-61
2023/05/29 01:24:54;;;;;;;4.90;2.90;;;13.90;99.90;;;;;;5053076;28;20207;-60
2023/05/29 01:27:26;;;;;;;6.20;3.10;;;13.80;99.90;;;;;;5052199;28;20749;-61
2023/05/29 01:29:56;;;;;;;6.40;3.47;;;13.70;99.90;;;;;;5053076;28;20236;-60
2023/05/29 01:32:24;;;;;;;5.77;3.70;;;13.60;99.90;;;;;;5053035;28;20663;-61
2023/05/29 01:34:51;;;;;;;7.10;3.50;;;13.50;99.90;;;;;;5052866;28;20637;-60
2023/05/29 01:37:18;;;;;;;5.33;3.20;;;13.60;99.90;;;;;;5052967;28;20206;-61
2023/05/29 01:39:45;;;;;;;4.47;3.47;;;13.50;99.90;;;;;;5052775;28;20225;-62
2023/05/29 01:42:12;;;;;;;7.17;3.10;;;13.40;99.90;;;;;;5052840;28;20212;-60
2023/05/29 01:44:41;;;;;;;5.73;3.20;;;13.40;99.90;;;;;;5052880;28;20737;-60
2023/05/29 01:47:09;;;;;;;4.67;3.10;;;13.50;99.90;;;;;;5052709;28;20206;-60
2023/05/29 01:49:38;;;;;;;8.93;3.70;;;13.70;99.90;;;;;;5052690;28;20323;-61
2023/05/29 01:52:06;;;;;;;5.07;2.70;;;13.80;99.90;;;;;;5052699;28;20587;-61
2023/05/29 01:54:33;;;;;;;5.67;3.17;;;14.00;99.90;;;;;;5052529;28;20308;-61
2023/05/29 01:57:02;;;;;;;7.47;3.57;;;14.10;99.90;;;;;;5052125;28;20253;-61
2023/05/29 01:59:29;;;;;;;6.30;3.30;;;14.30;99.90;;;;;;5052283;28;20647;-60
2023/05/29 02:01:58;;;;;;;7.70;3.57;;;14.40;99.90;;;;;;5052696;28;20245;-61
2023/05/29 02:04:24;;;;;;;5.37;3.33;;;14.50;99.90;;;;;;5052424;28;20698;-60
2023/05/29 02:06:52;;;;;;;3.70;2.73;;;14.50;99.90;;;;;;5051998;28;20581;-61
2023/05/29 02:09:20;;;;;;;5.83;3.17;;;14.50;99.90;;;;;;5051918;28;20226;-60
2023/05/29 02:11:46;;;;;;;5.03;3.83;;;14.50;99.90;;;;;;5052266;28;20793;-60
2023/05/29 02:14:13;;;;;;;6.67;3.67;;;14.40;99.90;;;;;;5052349;28;20225;-61
2023/05/29 02:16:40;;;;;;;4.23;3.40;;;14.30;99.90;;;;;;5052021;28;20205;-59
2023/05/29 02:19:09;;;;;;;5.17;3.50;;;14.30;99.90;;;;;;5052136;28;20206;-60
2023/05/29 02:21:39;;;;;;;8.00;3.60;;;14.10;99.90;;;;;;5051994;28;20212;-60
2023/05/29 02:24:06;;;;;;;4.83;3.73;;;14.10;99.90;;;;;;5051987;28;20216;-60
2023/05/29 02:26:32;;;;;;;7.33;4.10;;;13.90;99.90;;;;;;5051785;28;20210;-59
2023/05/29 02:28:59;;;;;;;6.63;3.57;;;13.80;99.90;;;;;;5052112;28;20229;-60
2023/05/29 02:31:26;;;;;;;6.97;3.57;;;13.70;99.90;;;;;;5051991;28;20333;-60
2023/05/29 02:33:53;;;;;;;7.70;3.40;;;13.70;99.90;;;;;;5051929;28;20225;-60
2023/05/29 02:36:21;;;;;;;6.50;3.83;;;13.60;99.90;;;;;;5051454;28;20206;-60
2023/05/29 02:38:47;;;;;;;5.07;3.60;;;13.60;99.90;;;;;;5051569;28;20305;-61
2023/05/29 02:41:14;;;;;;;8.47;3.63;;;13.60;99.90;;;;;;5051868;28;20229;-62
2023/05/29 02:43:41;;;;;;;9.00;4.20;;;13.60;99.90;;;;;;5051749;28;20685;-62
2023/05/29 02:46:08;;;;;;;5.30;3.70;;;13.50;99.90;;;;;;5051569;28;20217;-61
2023/05/29 02:48:34;;;;;;;6.60;3.80;;;13.50;99.90;;;;;;5051789;28;20206;-61
2023/05/29 02:51:01;;;;;;;7.60;3.93;;;13.40;99.90;;;;;;5051291;28;20698;-60
2023/05/29 02:53:29;;;;;;;5.13;3.40;;;13.40;99.90;;;;;;5051940;28;20590;-61
2023/05/29 02:55:56;;;;;;;5.40;3.00;;;13.40;99.90;;;;;;5051066;28;20572;-61
2023/05/29 02:58:22;;;;;;;5.10;3.43;;;13.30;99.90;;;;;;5051631;28;20224;-61
2023/05/29 03:00:50;;;;;;;4.53;3.30;;;13.30;99.90;;;;;;5051482;28;20221;-61
2023/05/29 03:03:16;;;;;;;4.57;3.20;;;13.20;99.90;;;;;;5051339;28;20228;-61
2023/05/29 03:05:43;;;;;;;7.30;3.63;;;13.20;99.90;;;;;;5051242;28;20689;-59
2023/05/29 03:08:10;;;;;;;5.40;3.50;;;13.10;99.90;;;;;;5051287;28;20697;-62
2023/05/29 03:10:38;;;;;;;5.73;3.93;;;13.00;99.90;;;;;;5051199;28;20244;-62
2023/05/29 03:13:05;;;;;;;6.43;3.53;;;13.00;99.90;;;;;;5051380;28;20217;-61
2023/05/29 03:15:31;;;;;;;9.37;3.50;;;13.00;99.90;;;;;;5051296;28;20736;-61
2023/05/29 03:17:58;;;;;;;8.80;3.20;;;12.90;99.90;;;;;;5051057;28;20205;-62
2023/05/29 03:20:26;;;;;;;6.13;3.30;;;12.90;99.90;;;;;;5051377;28;20283;-61
2023/05/29 03:22:52;;;;;;;6.53;3.80;;;12.80;99.90;;;;;;5051547;28;20206;-61
2023/05/29 03:25:20;;;;;;;7.17;3.93;;;12.80;99.90;;;;;;5051104;28;20251;-61
2023/05/29 03:27:48;;;;;;;5.77;3.53;;;12.80;99.90;;;;;;5050915;28;20603;-61
2023/05/29 03:30:15;;;;;;;3.67;3.30;;;12.70;99.90;;;;;;5051213;28;20236;-61
2023/05/29 03:32:42;;;;;;;5.67;3.37;;;12.60;99.90;;;;;;5051333;28;20296;-59
2023/05/29 03:35:09;;;;;;;5.40;3.47;;;12.50;99.90;;;;;;5051138;28;20316;-61
2023/05/29 03:37:36;;;;;;;7.07;3.50;;;12.50;99.90;;;;;;5051326;28;20339;-61
2023/05/29 03:40:04;;;;;;;6.93;3.20;;;12.50;99.90;;;;;;5051095;28;20222;-62
2023/05/29 03:42:30;;;;;;;4.90;3.53;;;12.40;99.90;;;;;;5051191;28;20255;-61
2023/05/29 03:44:59;;;;;;;5.30;3.73;;;12.40;99.90;;;;;;5050920;28;20623;-60
2023/05/29 03:47:25;;;;;;;3.33;3.00;;;12.40;99.90;;;;;;5051056;28;20202;-60
2023/05/29 03:49:52;;;;;;;4.43;3.33;;;12.50;99.90;;;;;;5053437;28;20726;-60
2023/05/29 03:52:19;;;;;;;8.20;3.73;;;12.50;99.90;;;;;;5055255;28;20217;-61
2023/05/29 03:54:46;;;;;;;5.23;3.77;;;12.60;99.90;;;;;;5054846;28;20403;-60
2023/05/29 03:57:13;;;;;;;6.77;3.23;;;12.60;99.90;;;;;;5054598;28;20209;-60
2023/05/29 03:59:40;;;;;;;5.17;3.70;;;12.60;99.90;;;;;;5054652;28;20237;-60
2023/05/29 04:02:08;;;;;;;4.17;3.30;;;12.60;99.90;;;;;;5054858;28;20205;-59
2023/05/29 04:04:35;;;;;;;5.10;3.50;;;12.60;99.90;;;;;;5054612;28;20651;-60
2023/05/29 04:07:02;;;;;;;5.40;3.37;;;12.70;99.90;;;;;;5054372;28;20216;-60
2023/05/29 04:09:28;;;;;;;6.50;3.63;;;12.70;99.90;;;;;;5054476;28;20240;-61
2023/05/29 04:11:56;;;;;;;5.67;3.40;;;12.80;99.90;;;;;;5054685;28;20217;-61
2023/05/29 04:14:22;;;;;;;7.40;4.43;;;12.80;99.90;;;;;;5055288;28;20233;-60
2023/05/29 04:16:49;;;;;;;4.60;3.57;;;12.90;99.90;;;;;;5054605;28;20202;-60
2023/05/29 04:19:17;;;;;;;5.87;3.50;;;13.00;99.90;;;;;;5054625;28;20221;-60
2023/05/29 04:21:44;;;;;;;7.93;3.77;;;13.10;99.90;;;;;;5054566;28;20571;-60
2023/05/29 04:24:10;;;;;;;5.43;3.63;;;13.20;99.90;;;;;;5054436;28;20292;-60
2023/05/29 04:26:41;;;;;;;5.57;3.83;;;13.20;99.90;;;;;;5054020;28;20682;-60
2023/05/29 04:29:07;;;;;;;7.80;4.20;;;13.20;99.90;;;;;;5053974;28;20662;-60
2023/05/29 04:31:36;;;;;;;5.53;3.70;;;13.30;99.90;;;;;;5054238;28;20205;-60
2023/05/29 04:34:04;;;;;;;4.60;3.37;;;13.40;99.90;;;;;;5054238;28;20205;-61
2023/05/29 04:36:33;;;;;;;7.43;3.63;;;13.50;99.90;;;;;;5053877;28;20226;-61
2023/05/29 04:39:00;;;;;;;6.30;3.30;;;13.60;99.90;;;;;;5054039;28;20305;-61
2023/05/29 04:41:29;;;;;;;6.33;3.77;;;13.70;99.90;;;;;;5054011;28;20585;-61
2023/05/29 04:43:56;;;;;;;5.07;3.57;;;13.80;99.90;;;;;;5054222;28;20209;-59
2023/05/29 04:46:23;;;;;;;6.37;3.87;;;13.90;99.90;;;;;;5054126;28;20216;-61
2023/05/29 04:48:52;;;;;;;5.97;3.37;;;14.10;99.90;;;;;;5054021;28;20210;-60
2023/05/29 04:51:19;;;;;;;5.97;3.70;;;14.20;99.90;;;;;;5053875;28;20237;-60
2023/05/29 04:53:48;;;;;;;7.53;3.60;;;14.30;99.90;;;;;;5054107;28;20206;-60
2023/05/29 04:56:15;;;;;;;4.73;3.70;;;14.40;99.90;;;;;;5053543;28;20230;-59
2023/05/29 04:58:42;;;;;;;7.07;3.80;;;14.50;99.90;;;;;;5053685;28;20210;-60
2023/05/29 05:01:09;;;;;;;7.03;4.00;;;14.70;99.90;;;;;;5052351;28;20240;-59
2023/05/29 05:03:36;;;;;;;3.93;3.27;;;14.80;99.90;;;;;;5054057;28;20212;-60
2023/05/29 05:06:04;;;;;;;4.80;3.40;;;15.10;99.90;;;;;;5053378;28;20198;-60
2023/05/29 05:08:32;;;;;;;5.37;3.60;;;15.20;99.90;;;;;;5053535;28;20766;-60
2023/05/29 05:11:01;;;;;;;4.73;3.20;;;15.40;99.90;;;;;;5053622;28;20244;-60
2023/05/29 05:13:28;;;;;;;5.30;3.33;;;15.80;99.90;;;;;;5053565;28;20631;-60
2023/05/29 05:15:55;;;;;;;4.28;3.20;;;17.00;99.90;;;;;;5053302;28;20304;-60
2023/05/29 05:18:22;;;;;;;6.07;3.17;;;18.80;99.90;;;;;;5053594;28;20300;-60
2023/05/29 05:20:49;;;;;;;5.05;3.10;;;20.70;99.90;;;;;;5053213;28;20657;-60
2023/05/29 05:23:15;;;;;;;5.45;3.53;;;22.50;96.30;;;;;;5053292;28;20212;-61
2023/05/29 05:25:42;;;;;;;7.05;3.50;;;23.60;93.60;;;;;;5053476;28;20221;-60
2023/05/29 05:28:10;;;;;;;6.20;3.13;;;23.70;92.20;;;;;;5052999;28;20204;-60
2023/05/29 05:30:37;;;;;;;5.38;3.38;;;23.20;91.20;;;;;;5053252;28;20221;-61
2023/05/29 05:33:04;;;;;;;5.78;3.58;;;23.20;91.60;;;;;;5053773;28;20206;-60
2023/05/29 05:35:31;;;;;;;7.03;3.35;;;24.20;90.70;;;;;;5052914;28;20221;-57
2023/05/29 05:37:58;;;;;;;5.88;3.60;;;25.50;85.60;;;;;;5053089;28;20205;-60
2023/05/29 05:40:26;;;;;;;4.53;3.28;;;26.50;81.50;;;;;;5052906;28;20225;-59
2023/05/29 05:42:53;;;;;;;6.80;4.38;;;27.70;76.60;;;;;;5053201;28;20233;-60
2023/05/29 05:45:21;;;;;;;6.00;3.85;;;28.80;70.90;;;;;;5052804;28;20198;-60
2023/05/29 05:47:48;;;;;;;4.55;3.38;;;29.40;68.20;;;;;;5052462;28;20221;-60
2023/05/29 05:50:15;;;;;;;5.57;3.42;;;30.10;66.60;;;;;;5052859;28;20225;-58
2023/05/29 05:52:42;;;;;;;4.40;3.25;;;31.20;63.70;;;;;;5052571;28;20216;-59
2023/05/29 05:55:09;;;;;;;5.60;3.60;;;32.30;60.90;;;;;;5052599;28;20256;-59
2023/05/29 05:57:36;;;;;;;3.85;3.22;;;32.80;56.90;;;;;;5052553;28;20574;-61
2023/05/29 06:00:04;;;;;;;6.78;3.20;;;32.50;57.20;;;;;;5052634;28;20283;-59
2023/05/29 06:02:32;;;;;;;5.03;3.55;;;32.20;56.50;;;;;;5052471;28;20638;-59
2023/05/29 06:04:59;;;;;;;5.63;3.30;;;31.50;57.60;;;;;;5052448;28;20198;-62
2023/05/29 06:07:26;;;;;;;5.20;3.45;;;31.10;58.20;;;;;;5052441;28;20220;-59
2023/05/29 06:09:52;;;;;;;5.70;3.40;;;31.70;56.70;;;;;;5049650;28;20227;-65
2023/05/29 06:12:19;;;;;;;5.53;3.33;;;32.30;55.30;;;;;;5050994;28;20206;-61
2023/05/29 06:14:46;;;;;;;6.68;3.85;;;32.90;54.90;;;;;;5051444;28;20206;-59
2023/05/29 06:17:13;;;;;;;7.82;5.30;;;32.90;54.00;;;;;;5051313;28;20253;-62
2023/05/29 06:19:41;;;;;;;6.75;4.55;;;32.70;55.60;;;;;;5051368;28;20291;-60
2023/05/29 06:22:08;;;;;;;4.82;3.75;;;33.30;55.20;;;;;;5051629;28;20213;-61
2023/05/29 06:24:35;;;;;;;5.53;3.67;;;34.50;53.70;;;;;;5051787;28;20217;-59
2023/05/29 06:27:02;;;;;;;6.85;4.38;;;35.70;51.70;;;;;;5051140;28;20793;-57
2023/05/29 06:29:29;;;;;;;3.88;3.30;;;35.60;51.80;;;;;;5050951;28;20233;-59
2023/05/29 06:31:56;;;;;;;4.82;3.65;;;35.90;50.30;;;;;;5050936;28;20217;-59
2023/05/29 06:34:22;;;;;;;4.38;3.30;;;35.70;49.80;;;;;;5051421;28;20255;-61
2023/05/29 06:36:50;;;;;;;4.32;3.42;;;35.50;50.40;;;;;;5051018;28;20226;-58
2023/05/29 06:39:18;;;;;;;6.20;3.97;;;35.50;48.50;;;;;;5050974;28;20205;-57
2023/05/29 06:41:44;;;;;;;4.93;3.70;;;35.50;49.10;;;;;;5051248;28;20205;-58
2023/05/29 06:44:11;;;;;;;6.00;3.30;;;34.90;50.20;;;;;;5051256;28;20209;-59
2023/05/29 06:46:38;;;;;;;5.32;3.78;;;35.70;50.00;;;;;;5051158;28;20675;-57
2023/05/29 06:49:05;;;;;;;4.32;3.63;;;36.40;49.40;;;;;;5051078;28;20209;-59
2023/05/29 06:51:32;;;;;;;5.68;3.47;;;37.30;48.20;;;;;;5050694;28;20690;-58
2023/05/29 06:54:00;;;;;;;6.78;4.90;;;37.40;46.40;;;;;;5052130;28;20593;-55
2023/05/29 06:56:28;;;;;;;5.38;3.70;;;37.40;46.90;;;;;;5051631;28;20221;-54
2023/05/29 06:58:55;;;;;;;4.88;3.88;;;38.50;45.30;;;;;;5051682;28;20216;-56
2023/05/29 07:01:23;;;;;;;5.55;3.05;;;39.10;45.00;;;;;;5051546;28;20231;-55
2023/05/29 07:03:53;;;;;;;4.32;2.95;;;39.20;43.20;;;;;;5051884;28;20302;-54
2023/05/29 07:06:20;;;;;;;4.22;3.20;;;38.40;43.20;;;;;;5051621;28;20196;-54
2023/05/29 07:08:47;;;;;;;4.35;3.17;;;38.00;43.50;;;;;;5051864;28;20209;-53
2023/05/29 07:11:15;;;;;;;3.88;3.15;;;38.50;43.30;;;;;;5051866;28;20720;-58
2023/05/29 07:13:41;;;;;;;6.63;3.13;;;39.30;43.00;;;;;;5051937;28;20598;-57
2023/05/29 07:16:08;;;;;;;5.03;2.63;;;39.80;41.80;;;;;;5050999;28;20232;-59
2023/05/29 07:18:35;;;;;;;5.80;3.05;;;40.30;41.10;;;;;;5051742;28;20205;-59
2023/05/29 07:21:02;;;;;;;4.90;3.00;;;40.20;40.90;;;;;;5051292;28;20243;-57
2023/05/29 07:23:28;;;;;;;5.10;3.33;;;40.70;40.30;;;;;;5050723;28;20204;-60
2023/05/29 07:25:55;;;;;;;5.85;3.22;;;40.30;40.70;;;;;;5050784;28;20689;-59
2023/05/29 07:28:23;;;;;;;6.25;3.72;;;39.10;41.70;;;;;;5051326;28;20212;-58
2023/05/29 07:30:50;;;;;;;6.40;3.15;;;39.10;42.10;;;;;;5051332;28;20225;-58
2023/05/29 07:33:17;;;;;;;15.80;14.18;;;39.70;41.50;;;;;;5051066;28;20717;-61
2023/05/29 07:35:44;;;;;;;7.70;3.67;;;39.90;40.80;;;;;;5050809;28;20671;-60
2023/05/29 07:38:10;;;;;;;6.30;3.45;;;40.40;40.70;;;;;;5050932;28;20208;-61
2023/05/29 07:40:37;;;;;;;4.90;3.45;;;41.20;39.50;;;;;;5050971;28;20227;-60
2023/05/29 07:43:04;;;;;;;3.70;3.05;;;41.60;39.00;;;;;;5050980;28;20664;-60
2023/05/29 07:45:32;;;;;;;5.50;3.10;;;40.90;39.60;;;;;;5051003;28;20205;-60
2023/05/29 07:47:59;;;;;;;6.55;3.38;;;40.80;39.70;;;;;;5050706;28;20212;-59
2023/05/29 07:50:26;;;;;;;6.00;3.35;;;40.20;40.30;;;;;;5050981;28;20228;-59
2023/05/29 07:52:55;;;;;;;7.55;3.25;;;39.80;40.80;;;;;;5050882;28;20295;-58
2023/05/29 07:55:22;;;;;;;5.20;3.30;;;39.90;40.70;;;;;;5050824;28;20378;-59
2023/05/29 07:57:49;;;;;;;4.65;3.35;;;39.00;42.70;;;;;;5050845;28;20213;-59
2023/05/29 08:00:16;;;;;;;5.20;3.00;;;38.60;42.70;;;;;;5050951;28;20228;-58
2023/05/29 08:02:44;;;;;;;4.97;3.30;;;39.00;42.50;;;;;;5050946;28;20208;-58
2023/05/29 08:05:12;;;;;;;4.65;3.20;;;39.30;42.20;;;;;;5050986;28;20201;-59
2023/05/29 08:07:39;;;;;;;3.90;2.97;;;39.70;41.40;;;;;;5050738;28;20279;-60
2023/05/29 08:10:08;;;;;;;6.05;3.95;;;40.10;40.90;;;;;;5050832;28;20232;-60
2023/05/29 08:12:35;;;;;;;6.88;3.70;;;40.40;40.40;;;;;;5051049;28;20288;-59
2023/05/29 08:15:02;;;;;;;5.40;3.30;;;40.70;40.10;;;;;;5050746;28;20216;-60
2023/05/29 08:17:29;;;;;;;5.13;3.28;;;40.00;40.70;;;;;;5050555;28;20722;-58
2023/05/29 08:19:57;;;;;;;7.75;3.35;;;40.10;39.90;;;;;;5050757;28;20298;-60
2023/05/29 08:22:29;;;;;;;5.05;3.30;;;40.30;40.00;;;;;;5050953;28;20205;-59
2023/05/29 08:24:56;;;;;;;6.13;3.05;;;40.80;40.00;;;;;;5050933;28;20679;-60
2023/05/29 08:27:23;;;;;;;3.92;3.08;;;41.10;39.20;;;;;;5050763;28;20211;-58
2023/05/29 08:29:49;;;;;;;5.43;3.42;;;41.40;38.70;;;;;;5050593;28;20225;-59
2023/05/29 08:32:17;;;;;;;6.65;3.65;;;41.40;38.40;;;;;;5050778;28;20216;-60
2023/05/29 08:34:45;;;;;;;4.20;3.35;;;40.30;39.40;;;;;;5051125;28;20201;-59
2023/05/29 08:37:13;;;;;;;5.63;3.30;;;39.70;39.80;;;;;;5054192;28;20221;-59
2023/05/29 08:39:40;;;;;;;6.68;3.45;;;39.70;39.70;;;;;;5054257;28;20221;-59
2023/05/29 08:42:11;;;;;;;7.03;3.10;;;39.40;40.30;;;;;;5054300;28;20558;-59
2023/05/29 08:44:41;;;;;;;5.15;3.03;;;39.00;41.30;;;;;;5054210;28;20371;-58
2023/05/29 08:47:10;;;;;;;5.32;3.03;;;38.40;41.40;;;;;;5054186;28;20296;-58
2023/05/29 08:49:42;;;;;;;5.50;3.25;;;37.50;42.00;;;;;;5054257;28;20240;-59
2023/05/29 08:52:12;;;;;;;4.93;3.30;;;36.10;42.90;;;;;;5054104;28;20237;-60
2023/05/29 08:54:41;;;;;;;5.65;3.30;;;34.50;44.90;;;;;;5054081;28;20221;-59
2023/05/29 08:57:08;;;;;;;6.15;3.08;;;33.10;46.70;;;;;;5053601;28;20283;-59
2023/05/29 08:59:37;;;;;;;5.13;3.95;;;31.60;48.20;;;;;;5053825;28;20339;-60
2023/05/29 09:02:05;;;;;;;7.05;3.47;;;30.40;50.50;;;;;;5053804;28;20214;-58
2023/05/29 09:04:32;;;;;;;6.57;3.50;;;29.10;49.40;;;;;;5053999;28;20287;-58
2023/05/29 09:07:00;;;;;;;5.05;3.47;;;28.20;52.60;;;;;;5053438;28;20206;-59
2023/05/29 09:09:27;;;;;;;5.00;3.25;;;27.50;54.20;;;;;;5053715;28;20244;-59
2023/05/29 09:11:56;;;;;;;4.90;3.10;;;26.90;55.80;;;;;;5053981;28;20297;-58
2023/05/29 09:14:37;;;;;;;4.68;3.25;;;26.60;55.30;;;;;;5053509;28;20206;-59
2023/05/29 09:17:05;;;;;;;6.50;3.13;;;26.40;56.40;;;;;;5053413;28;20689;-59
2023/05/29 09:19:32;;;;;;;4.30;3.28;;;26.30;57.10;;;;;;5053695;28;20658;-60
2023/05/29 09:22:03;;;;;;;4.65;3.00;;;26.10;56.50;;;;;;5053306;28;20202;-57
2023/05/29 09:24:31;;;;;;;4.72;3.40;;;25.90;57.00;;;;;;5053335;28;20236;-59
2023/05/29 09:27:00;;;;;;;6.43;3.30;;;25.70;57.70;;;;;;5053096;28;20206;-59
2023/05/29 09:29:27;;;;;;;5.97;3.72;;;25.40;57.40;;;;;;5053400;28;20225;-59
2023/05/29 09:31:54;;;;;;;4.60;3.40;;;25.30;57.30;;;;;;5053360;28;20201;-60
2023/05/29 09:34:23;;;;;;;8.10;3.33;;;25.20;58.30;;;;;;5053321;28;20216;-60
2023/05/29 09:36:51;;;;;;;6.85;2.85;;;25.20;58.50;;;;;;5053178;28;20225;-60
2023/05/29 09:39:18;;;;;;;7.68;3.15;;;25.20;58.90;;;;;;5053382;28;20211;-59
2023/05/29 09:41:45;;;;;;;8.23;3.20;;;25.10;58.20;;;;;;5053094;28;20279;-58
2023/05/29 09:44:15;;;;;;;6.47;3.22;;;25.00;57.90;;;;;;5053316;28;20210;-60
2023/05/29 09:46:43;;;;;;;5.30;3.40;;;25.00;57.60;;;;;;5052382;28;20212;-59
2023/05/29 09:49:12;;;;;;;4.80;2.90;;;25.00;57.10;;;;;;5053176;28;20209;-60
2023/05/29 09:51:39;;;;;;;5.25;2.80;;;25.00;57.50;;;;;;5052765;28;20241;-61
2023/05/29 09:54:16;;;;;;;7.30;3.42;;;25.10;57.90;;;;;;5052592;28;20671;-59
2023/05/29 09:56:44;;;;;;;4.53;3.20;;;25.20;57.20;;;;;;5052593;28;20224;-60
2023/05/29 09:59:12;;;;;;;7.68;3.40;;;25.20;57.20;;;;;;5053291;28;20209;-60
2023/05/29 10:01:41;;;;;;;5.63;3.00;;;25.20;57.70;;;;;;5052847;28;20201;-60
2023/05/29 10:04:09;;;;;;;5.55;3.00;;;25.30;57.20;;;;;;5052826;28;20702;-63
2023/05/29 10:06:37;;;;;;;5.45;3.45;;;25.40;56.90;;;;;;5048593;28;20209;-60
2023/05/29 10:09:05;;;;;;;5.85;3.25;;;25.40;57.30;;;;;;5052042;28;20205;-60
2023/05/29 10:11:33;;;;;;;5.57;3.13;;;25.40;57.30;;;;;;5051975;28;20209;-60
2023/05/29 10:14:03;;;;;;;6.45;3.00;;;25.40;57.30;;;;;;5051946;28;20209;-60
2023/05/29 10:16:35;;;;;;;5.93;3.10;;;25.50;57.40;;;;;;5051273;28;20229;-60
2023/05/29 10:19:07;;;;;;;5.80;3.05;;;25.70;58.00;;;;;;5051347;28;20220;-61
2023/05/29 10:21:36;;;;;;;4.18;2.80;;;25.70;57.50;;;;;;5051628;28;20212;-59
2023/05/29 10:24:07;;;;;;;6.97;3.20;;;25.70;57.50;;;;;;5051724;28;20213;-60
2023/05/29 10:26:37;;;;;;;6.38;2.80;;;25.70;57.10;;;;;;5051166;28;20220;-60
2023/05/29 10:29:12;;;;;;;5.40;2.80;;;25.80;56.60;;;;;;5051336;28;20210;-60
2023/05/29 10:31:49;;;;;;;4.07;3.00;;;25.90;57.50;;;;;;5051934;28;20208;-61
2023/05/29 10:34:30;;;;;;;7.63;2.95;;;25.80;57.00;;;;;;5051766;28;20228;-61
2023/05/29 10:37:07;;;;;;;5.53;2.72;;;25.90;55.60;;;;;;5051209;28;20221;-61
2023/05/29 10:39:34;;;;;;;6.97;2.97;;;25.90;55.60;;;;;;5051775;28;20279;-61
2023/05/29 10:42:01;;;;;;;4.30;2.80;;;25.90;54.80;;;;;;5051386;28;20362;-61
2023/05/29 10:44:41;;;;;;;4.63;2.47;;;26.00;54.10;;;;;;5051093;28;20500;-60
2023/05/29 10:47:10;;;;;;;5.20;2.75;;;25.90;54.70;;;;;;5051552;28;20240;-61
2023/05/29 10:49:39;;;;;;;6.90;3.20;;;25.90;55.30;;;;;;5051376;28;20260;-60
2023/05/29 10:52:06;;;;;;;4.75;2.80;;;25.80;55.20;;;;;;5051777;28;20208;-61
2023/05/29 10:54:50;;;;;;;5.68;2.90;;;25.80;55.00;;;;;;5052000;28;20268;-61
2023/05/29 10:57:17;;;;;;;6.07;2.88;;;25.70;55.00;;;;;;5051631;28;20229;-61
2023/05/29 10:59:46;;;;;;;5.45;2.90;;;25.80;54.80;;;;;;5051576;28;20237;-61
2023/05/29 11:02:17;;;;;;;6.50;2.80;;;25.80;55.00;;;;;;5051764;28;20206;-62
2023/05/29 11:05:04;;;;;;;5.68;3.15;;;25.80;54.40;;;;;;5051796;28;20209;-61
2023/05/29 11:07:35;;;;;;;5.40;2.50;;;25.90;53.70;;;;;;5051539;28;20208;-59
2023/05/29 11:10:13;;;;;;;5.28;3.47;;;26.00;54.00;;;;;;5051713;28;20714;-61
2023/05/29 11:12:57;;;;;;;6.78;3.05;;;26.20;53.40;;;;;;5051699;28;20316;-61
2023/05/29 11:15:26;;;;;;;4.50;2.97;;;26.10;53.10;;;;;;5051634;28;20193;-60
2023/05/29 11:17:55;;;;;;;4.53;2.60;;;26.00;52.90;;;;;;5050996;28;20744;-60
2023/05/29 11:20:36;;;;;;;5.32;2.22;;;26.00;53.40;;;;;;5051424;28;20280;-61
2023/05/29 11:23:07;;;;;;;4.43;2.60;;;25.90;52.00;;;;;;5051556;28;20620;-60
2023/05/29 11:25:36;;;;;;;4.13;2.75;;;25.80;52.00;;;;;;5051389;28;20660;-60
2023/05/29 11:28:08;;;;;;;4.47;3.05;;;25.90;53.80;;;;;;5051512;28;20201;-63
2023/05/29 11:30:46;;;;;;;4.57;2.75;;;25.80;53.50;;;;;;5051538;28;20225;-61
2023/05/29 11:33:24;;;;;;;5.93;2.65;;;25.80;52.40;;;;;;5051908;28;20216;-60
2023/05/29 11:35:57;;;;;;;3.28;2.58;;;25.90;51.10;;;;;;5051071;28;20217;-60
2023/05/29 11:38:24;;;;;;;4.32;2.78;;;26.00;51.10;;;;;;5050827;28;20279;-61
2023/05/29 11:40:51;;;;;;;3.63;2.38;;;26.10;51.80;;;;;;5051006;28;20322;-61
2023/05/29 11:43:18;;;;;;;4.32;2.55;;;26.10;51.70;;;;;;5051194;28;20299;-60
2023/05/29 11:45:45;;;;;;;4.80;2.92;;;26.10;50.60;;;;;;5050709;28;20209;-61
2023/05/29 11:48:11;;;;;;;4.03;2.70;;;26.10;51.00;;;;;;5050894;28;20201;-60
2023/05/29 11:50:38;;;;;;;5.85;2.88;;;26.10;51.00;;;;;;5050614;28;20221;-60
2023/05/29 11:53:08;;;;;;;3.25;2.58;;;26.10;50.80;;;;;;5051149;28;20740;-61
2023/05/29 11:55:35;;;;;;;4.85;2.33;;;26.20;50.00;;;;;;5050768;28;20590;-61
2023/05/29 11:58:04;;;;;;;4.40;2.92;;;26.20;47.40;;;;;;5050822;28;20233;-61
2023/05/29 12:00:34;;;;;;;4.35;2.50;;;26.20;46.70;;;;;;5050766;28;20244;-60
2023/05/29 12:03:03;;;;;;;3.05;2.40;;;26.10;46.60;;;;;;5050779;28;20201;-61
2023/05/29 12:05:30;;;;;;;3.58;2.45;;;26.20;47.30;;;;;;5051014;28;20209;-61
2023/05/29 12:07:57;;;;;;;4.13;2.72;;;26.20;47.40;;;;;;5050811;28;20232;-61
2023/05/29 12:10:25;;;;;;;3.70;2.67;;;26.20;46.20;;;;;;5052302;28;20264;-61
2023/05/29 12:12:53;;;;;;;6.03;3.00;;;26.30;46.80;;;;;;5054569;28;20202;-61
2023/05/29 12:15:21;;;;;;;4.75;2.80;;;26.30;46.10;;;;;;5054681;28;20202;-60
2023/05/29 12:17:49;;;;;;;4.72;2.78;;;26.30;45.90;;;;;;5054296;28;20240;-60
2023/05/29 12:20:17;;;;;;;6.65;2.78;;;26.30;45.90;;;;;;5054494;28;20274;-61
2023/05/29 12:22:45;;;;;;;3.13;2.67;;;26.30;47.30;;;;;;5054198;28;20213;-61
2023/05/29 12:25:13;;;;;;;2.90;2.58;;;26.50;47.00;;;;;;5054604;28;20588;-60
2023/05/29 12:27:42;;;;;;;2.80;2.60;;;26.60;46.40;;;;;;5054315;28;20202;-61
2023/05/29 12:30:11;;;;;;;4.85;2.85;;;26.70;46.40;;;;;;5054266;28;20330;-59
2023/05/29 12:32:40;;;;;;;3.53;2.58;;;26.80;46.40;;;;;;5054537;28;20237;-61
2023/05/29 12:35:18;;;;;;;3.65;2.60;;;26.90;46.40;;;;;;5054509;28;20217;-61
2023/05/29 12:37:54;;;;;;;3.85;2.70;;;27.00;45.00;;;;;;5053601;28;20234;-61
2023/05/29 12:40:22;;;;;;;3.35;2.80;;;26.90;46.00;;;;;;5054020;28;20778;-61
2023/05/29 12:42:56;;;;;;;3.97;2.75;;;26.80;46.00;;;;;;5054044;28;20213;-61
2023/05/29 12:45:25;;;;;;;3.25;2.35;;;26.80;46.00;;;;;;5054171;28;20255;-60
2023/05/29 12:47:53;;;;;;;4.57;2.80;;;26.80;46.90;;;;;;5054034;28;20550;-61
2023/05/29 12:50:22;;;;;;;4.25;2.58;;;26.90;47.10;;;;;;5053797;28;20230;-60
2023/05/29 12:52:55;;;;;;;6.68;3.15;;;27.00;44.80;;;;;;5053853;28;20216;-63